createdAt,value
2017-07-18T00:02:10.516Z,15.20
2017-07-18T00:04:37.959Z,15.20
2017-07-18T00:07:05.788Z,15.20
2017-07-18T00:09:33.255Z,15.20
2017-07-18T00:12:00.702Z,15.20
2017-07-18T00:14:28.141Z,15.20
2017-07-18T00:16:55.898Z,15.20
2017-07-18T00:19:23.359Z,15.20
2017-07-18T00:21:50.799Z,15.20
2017-07-18T00:24:18.248Z,15.10
2017-07-18T00:26:45.701Z,15.10
2017-07-18T00:29:13.495Z,15.00
2017-07-18T00:31:40.935Z,15.00
2017-07-18T00:34:08.379Z,14.90
2017-07-18T00:36:35.819Z,15.00
2017-07-18T00:39:03.282Z,14.90
2017-07-18T00:41:30.715Z,14.90
2017-07-18T00:43:58.151Z,14.90
2017-07-18T00:46:26.013Z,14.90
2017-07-18T00:48:53.849Z,14.90
2017-07-18T00:51:21.280Z,14.90
2017-07-18T00:53:48.731Z,14.90
2017-07-18T00:56:16.173Z,14.90
2017-07-18T00:58:43.611Z,14.80
2017-07-18T01:01:11.452Z,14.80
2017-07-18T01:03:38.890Z,14.80
2017-07-18T01:06:06.328Z,14.80
2017-07-18T01:08:33.797Z,14.70
2017-07-18T01:11:01.239Z,14.70
2017-07-18T01:13:28.683Z,14.70
2017-07-18T01:15:56.155Z,14.60
2017-07-18T01:18:23.595Z,14.50
2017-07-18T01:20:51.027Z,14.60
2017-07-18T01:23:18.727Z,14.50
2017-07-18T01:25:46.163Z,14.20
2017-07-18T01:28:14.396Z,13.60
2017-07-18T01:30:42.319Z,14.00
2017-07-18T01:33:09.763Z,14.10
2017-07-18T01:35:37.201Z,14.20
2017-07-18T01:38:04.679Z,14.30
2017-07-18T01:40:32.113Z,14.40
2017-07-18T01:42:59.547Z,14.30
2017-07-18T01:45:27.007Z,13.70
2017-07-18T01:47:54.443Z,13.70
2017-07-18T01:50:22.285Z,14.20
2017-07-18T01:52:49.748Z,14.20
2017-07-18T01:55:17.192Z,14.20
2017-07-18T01:57:44.632Z,14.20
2017-07-18T02:00:12.373Z,14.20
2017-07-18T02:02:39.816Z,13.90
2017-07-18T02:05:07.255Z,13.90
2017-07-18T02:07:34.799Z,13.90
2017-07-18T02:10:02.237Z,14.10
2017-07-18T02:12:29.681Z,14.00
2017-07-18T02:14:57.144Z,13.70
2017-07-18T02:17:24.578Z,13.10
2017-07-18T02:19:52.018Z,12.90
2017-07-18T02:22:19.494Z,13.20
2017-07-18T02:24:46.937Z,13.70
2017-07-18T02:27:14.386Z,13.80
2017-07-18T02:29:42.182Z,13.50
2017-07-18T02:32:09.880Z,13.40
2017-07-18T02:34:37.326Z,13.80
2017-07-18T02:37:04.798Z,13.90
2017-07-18T02:39:32.240Z,13.90
2017-07-18T02:41:59.700Z,13.90
2017-07-18T02:44:28.142Z,13.90
2017-07-18T02:46:55.602Z,13.90
2017-07-18T02:49:23.055Z,13.90
2017-07-18T02:51:50.520Z,13.90
2017-07-18T02:54:18.375Z,14.00
2017-07-18T02:56:45.830Z,14.00
2017-07-18T02:59:13.298Z,13.70
2017-07-18T03:01:41.145Z,13.40
2017-07-18T03:04:08.589Z,13.40
2017-07-18T03:06:36.067Z,13.30
2017-07-18T03:09:03.513Z,13.50
2017-07-18T03:11:30.969Z,13.80
2017-07-18T03:13:58.444Z,13.50
2017-07-18T03:16:26.277Z,13.30
2017-07-18T03:18:53.721Z,13.30
2017-07-18T03:21:21.190Z,13.60
2017-07-18T03:23:48.646Z,13.60
2017-07-18T03:26:16.115Z,13.60
2017-07-18T03:28:43.600Z,13.70
2017-07-18T03:31:11.059Z,13.90
2017-07-18T03:33:38.518Z,13.90
2017-07-18T03:36:06.014Z,13.80
2017-07-18T03:38:33.463Z,13.50
2017-07-18T03:41:00.926Z,13.70
2017-07-18T03:43:28.398Z,13.90
2017-07-18T03:45:55.850Z,13.80
2017-07-18T03:48:23.302Z,13.90
2017-07-18T03:50:50.782Z,13.90
2017-07-18T03:53:18.621Z,13.80
2017-07-18T03:55:46.074Z,13.80
2017-07-18T03:58:13.546Z,13.80
2017-07-18T04:00:40.989Z,13.90
2017-07-18T04:03:08.439Z,14.00
2017-07-18T04:05:35.909Z,14.20
2017-07-18T04:08:03.366Z,14.40
2017-07-18T04:10:30.822Z,14.50
2017-07-18T04:12:58.770Z,14.60
2017-07-18T04:15:26.221Z,14.50
2017-07-18T04:17:53.678Z,14.60
2017-07-18T04:20:21.352Z,14.60
2017-07-18T04:22:48.818Z,14.50
2017-07-18T04:25:16.674Z,14.40
2017-07-18T04:27:44.159Z,14.40
2017-07-18T04:30:11.625Z,14.50
2017-07-18T04:32:39.104Z,14.40
2017-07-18T04:35:07.115Z,14.30
2017-07-18T04:37:34.619Z,14.70
2017-07-18T04:40:02.086Z,14.50
2017-07-18T04:42:29.994Z,14.70
2017-07-18T04:44:57.457Z,14.40
2017-07-18T04:47:24.936Z,14.10
2017-07-18T04:49:52.696Z,14.00
2017-07-18T04:52:20.168Z,13.80
2017-07-18T04:54:47.634Z,13.90
2017-07-18T04:57:15.135Z,14.40
2017-07-18T04:59:42.985Z,14.30
2017-07-18T05:02:10.455Z,14.30
2017-07-18T05:04:38.723Z,14.20
2017-07-18T05:07:06.182Z,14.20
2017-07-18T05:09:33.637Z,14.70
2017-07-18T05:12:01.624Z,14.60
2017-07-18T05:14:29.095Z,14.60
2017-07-18T05:16:56.565Z,14.90
2017-07-18T05:19:24.303Z,15.00
2017-07-18T05:21:51.756Z,14.80
2017-07-18T05:24:19.211Z,14.60
2017-07-18T05:26:46.723Z,14.50
2017-07-18T05:29:14.207Z,14.90
2017-07-18T05:31:42.059Z,15.00
2017-07-18T05:34:09.543Z,15.00
2017-07-18T05:36:37.007Z,15.10
2017-07-18T05:39:04.460Z,15.40
2017-07-18T05:41:32.179Z,15.60
2017-07-18T05:43:59.636Z,15.40
2017-07-18T05:46:27.091Z,15.70
2017-07-18T05:48:54.621Z,15.90
2017-07-18T05:51:22.079Z,15.80
2017-07-18T05:53:49.536Z,16.00
2017-07-18T05:56:17.026Z,15.70
2017-07-18T05:58:44.501Z,15.60
2017-07-18T06:01:11.953Z,15.50
2017-07-18T06:03:39.439Z,15.40
2017-07-18T06:06:06.905Z,15.40
2017-07-18T06:08:34.376Z,15.50
2017-07-18T06:11:02.182Z,15.60
2017-07-18T06:13:29.639Z,15.80
2017-07-18T06:15:57.103Z,15.90
2017-07-18T06:18:24.587Z,15.80
2017-07-18T06:20:52.049Z,15.90
2017-07-18T06:23:19.516Z,16.00
2017-07-18T06:25:47.298Z,16.00
2017-07-18T06:28:14.748Z,16.50
2017-07-18T06:30:42.216Z,16.30
2017-07-18T06:33:10.108Z,16.70
2017-07-18T06:35:37.563Z,16.70
2017-07-18T06:38:05.020Z,17.10
2017-07-18T06:40:32.515Z,17.40
2017-07-18T06:42:59.987Z,17.50
2017-07-18T06:45:27.461Z,17.60
2017-07-18T06:47:55.530Z,17.80
2017-07-18T06:50:22.997Z,17.80
2017-07-18T06:52:50.465Z,17.80
2017-07-18T06:55:17.963Z,17.60
2017-07-18T06:57:45.427Z,17.60
2017-07-18T07:00:12.905Z,17.50
2017-07-18T07:02:41.133Z,17.20
2017-07-18T07:05:08.596Z,17.20
2017-07-18T07:07:36.157Z,17.10
2017-07-18T07:10:03.676Z,17.00
2017-07-18T07:12:31.132Z,17.10
2017-07-18T07:14:58.575Z,17.00
2017-07-18T07:17:26.302Z,17.10
2017-07-18T07:19:53.755Z,16.90
2017-07-18T07:22:21.212Z,16.90
2017-07-18T07:24:48.985Z,17.10
2017-07-18T07:27:16.847Z,17.20
2017-07-18T07:29:44.311Z,17.20
2017-07-18T07:32:12.385Z,17.20
2017-07-18T07:34:40.232Z,17.30
2017-07-18T07:37:07.688Z,17.30
2017-07-18T07:39:35.268Z,17.50
2017-07-18T07:42:02.945Z,17.50
2017-07-18T07:44:30.398Z,17.80
2017-07-18T07:46:57.979Z,18.00
2017-07-18T07:49:25.558Z,18.10
2017-07-18T07:51:53.064Z,18.10
2017-07-18T07:54:20.672Z,18.10
2017-07-18T07:56:48.135Z,18.40
2017-07-18T07:59:15.612Z,18.60
2017-07-18T08:01:43.291Z,18.80
2017-07-18T08:04:11.184Z,18.70
2017-07-18T08:06:38.643Z,18.70
2017-07-18T08:09:06.266Z,18.50
2017-07-18T08:11:33.816Z,18.60
2017-07-18T08:14:01.786Z,18.70
2017-07-18T08:16:29.736Z,18.70
2017-07-18T08:18:57.203Z,18.90
2017-07-18T08:21:24.678Z,19.00
2017-07-18T08:23:52.295Z,18.90
2017-07-18T08:26:19.770Z,19.00
2017-07-18T08:28:47.219Z,19.10
2017-07-18T08:31:14.702Z,19.10
2017-07-18T08:33:42.163Z,19.10
2017-07-18T08:36:09.624Z,18.80
2017-07-18T08:38:37.110Z,18.90
2017-07-18T08:41:04.565Z,19.10
2017-07-18T08:43:32.027Z,19.10
2017-07-18T08:45:59.716Z,19.40
2017-07-18T08:48:27.171Z,19.50
2017-07-18T08:50:54.636Z,19.50
2017-07-18T08:53:22.779Z,19.60
2017-07-18T08:55:50.239Z,19.60
2017-07-18T08:58:17.703Z,19.90
2017-07-18T09:00:45.192Z,20.10
2017-07-18T09:03:12.643Z,20.20
2017-07-18T09:05:40.412Z,20.20
2017-07-18T09:08:08.130Z,20.00
2017-07-18T09:10:35.599Z,19.90
2017-07-18T09:13:03.062Z,19.90
2017-07-18T09:15:30.819Z,19.90
2017-07-18T09:17:58.275Z,19.90
2017-07-18T09:20:25.736Z,20.10
2017-07-18T09:22:53.603Z,20.30
2017-07-18T09:25:21.457Z,20.50
2017-07-18T09:27:48.911Z,20.50
2017-07-18T09:30:16.807Z,20.10
2017-07-18T09:32:44.267Z,20.10
2017-07-18T09:35:11.733Z,20.00
2017-07-18T09:37:39.219Z,19.80
2017-07-18T09:40:06.674Z,20.50
2017-07-18T09:42:34.127Z,20.70
2017-07-18T09:45:01.720Z,20.90
2017-07-18T09:47:29.182Z,21.10
2017-07-18T09:49:56.649Z,21.10
2017-07-18T09:52:24.139Z,21.40
2017-07-18T09:54:51.611Z,22.10
2017-07-18T09:57:19.104Z,21.70
2017-07-18T09:59:46.846Z,21.40
2017-07-18T10:02:14.296Z,21.60
2017-07-18T10:04:41.756Z,21.40
2017-07-18T10:07:09.818Z,21.50
2017-07-18T10:09:37.270Z,21.50
2017-07-18T10:12:04.731Z,21.30
2017-07-18T10:14:32.492Z,21.40
2017-07-18T10:16:59.954Z,21.30
2017-07-18T10:19:27.408Z,21.10
2017-07-18T10:21:54.986Z,20.90
2017-07-18T10:24:22.847Z,20.90
2017-07-18T10:26:50.699Z,21.40
2017-07-18T10:29:18.594Z,22.20
2017-07-18T10:31:46.048Z,22.20
2017-07-18T10:34:13.504Z,22.60
2017-07-18T10:36:40.983Z,22.80
2017-07-18T10:39:08.434Z,22.50
2017-07-18T10:41:35.895Z,22.80
2017-07-18T10:44:03.405Z,22.40
2017-07-18T10:46:31.259Z,23.00
2017-07-18T10:48:58.707Z,23.00
2017-07-18T10:51:26.177Z,23.00
2017-07-18T10:53:54.027Z,22.40
2017-07-18T10:56:21.489Z,22.40
2017-07-18T10:58:49.245Z,22.60
2017-07-18T11:01:16.694Z,23.40
2017-07-18T11:03:44.151Z,23.50
2017-07-18T11:06:11.641Z,23.50
2017-07-18T11:08:39.493Z,24.40
2017-07-18T11:11:06.944Z,24.40
2017-07-18T11:13:34.860Z,23.90
2017-07-18T11:16:02.332Z,23.90
2017-07-18T11:18:29.787Z,23.80
2017-07-18T11:20:57.270Z,23.70
2017-07-18T11:23:24.724Z,23.90
2017-07-18T11:25:52.969Z,24.30
2017-07-18T11:28:20.769Z,24.20
2017-07-18T11:30:48.243Z,24.80
2017-07-18T11:33:15.708Z,25.70
2017-07-18T11:35:43.450Z,25.20
2017-07-18T11:38:11.302Z,25.10
2017-07-18T11:40:39.161Z,25.30
2017-07-18T11:43:07.047Z,24.90
2017-07-18T11:45:34.506Z,24.90
2017-07-18T11:48:01.996Z,25.10
2017-07-18T11:50:29.488Z,24.40
2017-07-18T11:52:56.949Z,24.30
2017-07-18T11:55:24.408Z,26.90
2017-07-18T11:57:52.303Z,28.50
2017-07-18T12:00:19.760Z,28.50
2017-07-18T12:02:47.223Z,28.80
2017-07-18T12:05:14.714Z,28.20
2017-07-18T12:07:42.163Z,28.40
2017-07-18T12:10:09.626Z,29.40
2017-07-18T12:12:37.124Z,30.10
2017-07-18T12:15:04.574Z,30.30
2017-07-18T12:17:32.429Z,28.50
2017-07-18T12:20:00.299Z,28.50
2017-07-18T12:22:28.155Z,29.30
2017-07-18T12:24:56.019Z,30.00
2017-07-18T12:27:23.499Z,30.00
2017-07-18T12:29:50.947Z,27.80
2017-07-18T12:32:18.403Z,26.10
2017-07-18T12:34:45.907Z,26.00
2017-07-18T12:37:13.363Z,26.80
2017-07-18T12:39:40.815Z,25.40
2017-07-18T12:42:08.304Z,25.60
2017-07-18T12:44:36.154Z,30.70
2017-07-18T12:47:03.615Z,30.70
2017-07-18T12:49:31.115Z,31.70
2017-07-18T12:51:58.588Z,31.60
2017-07-18T12:54:26.044Z,32.00
2017-07-18T12:56:53.743Z,32.50
2017-07-18T12:59:21.194Z,32.80
2017-07-18T13:01:48.651Z,33.00
2017-07-18T13:04:16.143Z,33.30
2017-07-18T13:06:43.602Z,33.00
2017-07-18T13:09:11.084Z,33.10
2017-07-18T13:11:38.571Z,32.20
2017-07-18T13:14:06.027Z,31.20
2017-07-18T13:16:33.501Z,32.40
2017-07-18T13:19:01.376Z,33.10
2017-07-18T13:21:29.231Z,33.30
2017-07-18T13:23:57.086Z,33.30
2017-07-18T13:26:25.246Z,33.30
2017-07-18T13:28:52.708Z,33.30
2017-07-18T13:31:20.168Z,33.80
2017-07-18T13:33:48.315Z,34.20
2017-07-18T13:36:15.780Z,34.10
2017-07-18T13:38:43.243Z,33.90
2017-07-18T13:41:11.280Z,32.00
2017-07-18T13:43:38.735Z,32.00
2017-07-18T13:46:06.188Z,33.80
2017-07-18T13:48:33.655Z,33.80
2017-07-18T13:51:01.113Z,33.30
2017-07-18T13:53:28.579Z,33.90
2017-07-18T13:55:56.314Z,31.70
2017-07-18T13:58:23.805Z,33.20
2017-07-18T14:00:51.247Z,34.40
2017-07-18T14:03:18.748Z,35.30
2017-07-18T14:05:46.204Z,34.50
2017-07-18T14:08:13.660Z,32.90
2017-07-18T14:10:41.455Z,32.00
2017-07-18T14:13:08.913Z,33.00
2017-07-18T14:15:36.375Z,33.10
2017-07-18T14:18:03.855Z,33.10
2017-07-18T14:20:31.322Z,33.70
2017-07-18T14:22:59.182Z,33.10
2017-07-18T14:25:26.951Z,33.10
2017-07-18T14:27:54.798Z,31.60
2017-07-18T14:30:22.266Z,31.60
2017-07-18T14:32:50.329Z,29.50
2017-07-18T14:35:17.787Z,29.40
2017-07-18T14:37:45.649Z,27.40
2017-07-18T14:40:13.248Z,27.40
2017-07-18T14:42:40.718Z,26.50
2017-07-18T14:45:09.059Z,25.60
2017-07-18T14:47:37.203Z,25.90
2017-07-18T14:50:04.662Z,25.90
2017-07-18T14:52:32.133Z,25.80
2017-07-18T14:55:00.032Z,25.40
2017-07-18T14:57:27.486Z,25.40
2017-07-18T14:59:54.947Z,25.40
2017-07-18T15:02:22.767Z,24.60
2017-07-18T15:04:50.225Z,24.10
2017-07-18T15:07:17.674Z,24.20
2017-07-18T15:09:45.535Z,24.10
2017-07-18T15:12:12.988Z,24.20
2017-07-18T15:14:40.450Z,24.10
2017-07-18T15:17:08.601Z,24.70
2017-07-18T15:19:36.072Z,24.70
2017-07-18T15:22:03.533Z,24.60
2017-07-18T15:24:31.132Z,24.70
2017-07-18T15:26:58.696Z,24.70
2017-07-18T15:29:26.180Z,24.70
2017-07-18T15:31:53.630Z,24.40
2017-07-18T15:34:21.103Z,24.40
2017-07-18T15:36:48.739Z,24.30
2017-07-18T15:39:16.200Z,24.30
2017-07-18T15:41:43.662Z,23.50
2017-07-18T15:44:11.336Z,23.30
2017-07-18T15:46:39.204Z,23.60
2017-07-18T15:49:06.656Z,23.60
2017-07-18T15:51:34.520Z,23.40
2017-07-18T15:54:01.984Z,23.50
2017-07-18T15:56:29.838Z,23.00
2017-07-18T15:58:58.013Z,23.00
2017-07-18T16:01:25.462Z,23.20
2017-07-18T16:03:52.924Z,23.60
2017-07-18T16:06:20.512Z,23.80
2017-07-18T16:08:47.978Z,23.30
2017-07-18T16:11:15.430Z,23.40
2017-07-18T16:13:43.150Z,23.30
2017-07-18T16:16:10.603Z,23.10
2017-07-18T16:18:38.070Z,23.10
2017-07-18T16:21:06.236Z,22.80
2017-07-18T16:23:33.696Z,22.80
2017-07-18T16:26:01.152Z,22.90
2017-07-18T16:28:28.628Z,22.80
2017-07-18T16:30:56.082Z,22.70
2017-07-18T16:33:23.548Z,22.50
2017-07-18T16:35:51.040Z,22.30
2017-07-18T16:38:18.509Z,22.30
2017-07-18T16:40:45.966Z,22.40
2017-07-18T16:43:13.455Z,22.20
2017-07-18T16:45:41.313Z,22.00
2017-07-18T16:48:09.306Z,22.10
2017-07-18T16:50:37.018Z,22.10
2017-07-18T16:53:04.466Z,22.10
2017-07-18T16:55:31.918Z,22.30
2017-07-18T16:57:59.415Z,22.00
2017-07-18T17:00:26.912Z,22.20
2017-07-18T17:02:54.358Z,22.10
2017-07-18T17:05:21.845Z,22.20
2017-07-18T17:07:49.320Z,22.30
2017-07-18T17:10:16.771Z,22.30
2017-07-18T17:12:44.531Z,22.20
2017-07-18T17:15:11.992Z,21.90
2017-07-18T17:17:39.450Z,21.90
2017-07-18T17:20:06.939Z,21.90
2017-07-18T17:22:34.393Z,21.80
2017-07-18T17:25:01.867Z,21.80
2017-07-18T17:27:29.364Z,21.90
2017-07-18T17:29:56.829Z,21.90
2017-07-18T17:32:24.685Z,21.80
2017-07-18T17:34:52.578Z,21.80
2017-07-18T17:37:20.045Z,21.80
2017-07-18T17:39:47.495Z,21.70
2017-07-18T17:42:15.083Z,21.70
2017-07-18T17:44:42.540Z,21.60
2017-07-18T17:47:09.992Z,21.70
2017-07-18T17:49:38.009Z,21.70
2017-07-18T17:52:05.464Z,21.70
2017-07-18T17:54:33.315Z,21.60
2017-07-18T17:57:00.795Z,21.60
2017-07-18T17:59:28.638Z,21.50
2017-07-18T18:01:56.090Z,21.50
2017-07-18T18:04:23.755Z,21.40
2017-07-18T18:06:51.221Z,21.40
2017-07-18T18:09:18.686Z,21.40
2017-07-18T18:11:46.660Z,21.30
2017-07-18T18:14:14.499Z,21.20
2017-07-18T18:16:41.960Z,21.20
2017-07-18T18:19:09.862Z,21.30
2017-07-18T18:21:37.323Z,21.30
2017-07-18T18:24:04.772Z,21.20
2017-07-18T18:26:32.263Z,21.20
2017-07-18T18:28:59.719Z,21.10
2017-07-18T18:31:27.175Z,21.10
2017-07-18T18:33:54.642Z,21.10
2017-07-18T18:36:22.090Z,21.00
2017-07-18T18:38:49.555Z,20.90
2017-07-18T18:41:17.325Z,20.90
2017-07-18T18:43:44.789Z,20.80
2017-07-18T18:46:12.656Z,20.80
2017-07-18T18:48:40.155Z,20.80
2017-07-18T18:51:07.624Z,20.80
2017-07-18T18:53:35.088Z,20.70
2017-07-18T18:56:02.736Z,20.50
2017-07-18T18:58:30.216Z,20.30
2017-07-18T19:00:57.743Z,20.20
2017-07-18T19:03:25.445Z,20.00
2017-07-18T19:05:52.911Z,19.90
2017-07-18T19:08:20.789Z,19.60
2017-07-18T19:10:48.404Z,19.60
2017-07-18T19:13:15.884Z,19.50
2017-07-18T19:15:43.383Z,19.50
2017-07-18T19:18:10.883Z,19.40
2017-07-18T19:20:38.497Z,19.40
2017-07-18T19:23:05.960Z,19.30
2017-07-18T19:25:33.444Z,19.10
2017-07-18T19:28:00.906Z,19.00
2017-07-18T19:30:28.372Z,19.00
2017-07-18T19:32:55.924Z,18.90
2017-07-18T19:35:23.889Z,18.90
2017-07-18T19:37:51.798Z,18.70
2017-07-18T19:40:19.408Z,18.80
2017-07-18T19:42:46.989Z,18.70
2017-07-18T19:45:14.469Z,18.60
2017-07-18T19:47:42.102Z,18.50
2017-07-18T19:50:09.627Z,18.50
2017-07-18T19:52:37.093Z,18.40
2017-07-18T19:55:04.661Z,18.40
2017-07-18T19:57:32.535Z,18.20
2017-07-18T20:00:00.001Z,18.20
2017-07-18T20:02:27.521Z,18.20
2017-07-18T20:04:54.975Z,18.20
2017-07-18T20:07:22.482Z,18.20
2017-07-18T20:09:49.969Z,18.20
2017-07-18T20:12:17.479Z,18.00
2017-07-18T20:14:44.965Z,18.00
2017-07-18T20:17:12.468Z,18.00
2017-07-18T20:19:39.933Z,17.90
2017-07-18T20:22:07.787Z,17.80
2017-07-18T20:24:35.436Z,17.80
2017-07-18T20:27:02.892Z,17.70
2017-07-18T20:29:30.349Z,17.70
2017-07-18T20:31:57.852Z,17.60
2017-07-18T20:34:25.299Z,17.50
2017-07-18T20:36:52.758Z,17.50
2017-07-18T20:39:20.267Z,17.50
2017-07-18T20:41:47.729Z,17.50
2017-07-18T20:44:15.196Z,17.50
2017-07-18T20:46:42.695Z,17.50
2017-07-18T20:49:10.144Z,17.30
2017-07-18T20:51:37.612Z,17.40
2017-07-18T20:54:05.128Z,17.30
2017-07-18T20:56:32.976Z,17.10
2017-07-18T20:59:00.441Z,17.10
2017-07-18T21:01:27.938Z,17.10
2017-07-18T21:03:55.756Z,17.10
2017-07-18T21:06:23.208Z,17.00
2017-07-18T21:08:50.877Z,17.00
2017-07-18T21:11:18.744Z,16.90
2017-07-18T21:13:46.608Z,16.90
2017-07-18T21:16:14.499Z,16.80
2017-07-18T21:18:41.973Z,16.90
2017-07-18T21:21:09.431Z,16.70
2017-07-18T21:23:36.931Z,16.70
2017-07-18T21:26:04.399Z,16.60
2017-07-18T21:28:32.260Z,16.50
2017-07-18T21:31:00.160Z,16.50
2017-07-18T21:33:27.630Z,16.50
2017-07-18T21:35:55.097Z,16.50
2017-07-18T21:38:22.780Z,16.50
2017-07-18T21:40:50.247Z,16.40
2017-07-18T21:43:17.711Z,16.40
2017-07-18T21:45:45.606Z,16.30
2017-07-18T21:48:13.077Z,16.30
2017-07-18T21:50:40.540Z,16.30
2017-07-18T21:53:08.339Z,16.20
2017-07-18T21:55:35.801Z,16.20
2017-07-18T21:58:03.254Z,16.10
2017-07-18T22:00:31.006Z,16.20
2017-07-18T22:02:58.468Z,16.10
2017-07-18T22:05:25.923Z,16.00
2017-07-18T22:07:53.581Z,16.00
2017-07-18T22:10:21.045Z,16.00
2017-07-18T22:12:48.891Z,15.90
2017-07-18T22:15:16.362Z,15.90
2017-07-18T22:17:44.245Z,15.90
2017-07-18T22:20:12.087Z,15.90
2017-07-18T22:22:39.975Z,15.90
2017-07-18T22:25:07.831Z,15.90
2017-07-18T22:27:35.688Z,15.90
2017-07-18T22:30:03.579Z,15.90
2017-07-18T22:32:31.046Z,15.90
2017-07-18T22:34:58.500Z,15.80
2017-07-18T22:37:25.991Z,15.70
2017-07-18T22:39:53.443Z,15.70
2017-07-18T22:42:20.903Z,15.70
2017-07-18T22:44:48.679Z,15.70
2017-07-18T22:47:16.130Z,15.60
2017-07-18T22:49:43.583Z,15.60
2017-07-18T22:52:11.072Z,15.50
2017-07-18T22:54:38.928Z,15.50
2017-07-18T22:57:06.788Z,15.40
2017-07-18T22:59:34.685Z,15.40
2017-07-18T23:02:02.140Z,15.40
2017-07-18T23:04:29.600Z,15.30
2017-07-18T23:06:57.070Z,15.20
2017-07-18T23:09:24.532Z,15.30
2017-07-18T23:11:51.988Z,15.20
2017-07-18T23:14:19.489Z,15.10
2017-07-18T23:16:47.360Z,15.10
2017-07-18T23:19:15.212Z,15.20
2017-07-18T23:21:43.082Z,15.30
2017-07-18T23:24:10.943Z,15.30
2017-07-18T23:26:38.799Z,15.30
2017-07-18T23:29:06.300Z,15.30
2017-07-18T23:31:33.764Z,15.30
2017-07-18T23:34:01.235Z,15.20
2017-07-18T23:36:28.923Z,15.20
2017-07-18T23:38:56.384Z,15.20
2017-07-18T23:41:23.835Z,15.20
2017-07-18T23:43:51.732Z,15.10
2017-07-18T23:46:19.195Z,15.10
2017-07-18T23:48:46.651Z,15.10
2017-07-18T23:51:14.372Z,15.10
2017-07-18T23:53:42.234Z,15.10
2017-07-18T23:56:09.691Z,15.10
2017-07-18T23:58:37.200Z,15.00
